Time;durP1;ratioP1;P1;durP2;ratioP2;P2;SDS_P1;SDS_P2;PMS_P1;PMS_P2;Temp;Humidity;BMP_temperature;BMP_pressure;BME280_temperature;BME280_humidity;BME280_pressure;Samples;Min_cycle;Max_cycle;Signal;HPM_P1;HPM_P2
2020/12/09 00:00:11;;;;;;;31.95;20.13;;;3.00;99.90;;;;;;5113778;28;20501;-67
2020/12/09 00:02:40;;;;;;;32.30;20.67;;;3.00;99.90;;;;;;5102353;28;20040;-65
2020/12/09 00:05:12;;;;;;;34.53;20.60;;;3.00;99.90;;;;;;5113481;28;20044;-63
2020/12/09 00:07:40;;;;;;;34.88;20.88;;;3.00;99.90;;;;;;5104417;28;20047;-65
2020/12/09 00:10:10;;;;;;;33.28;20.92;;;3.00;99.90;;;;;;5113833;28;20058;-66
2020/12/09 00:12:39;;;;;;;35.50;21.08;;;3.00;99.90;;;;;;5113974;28;20048;-64
2020/12/09 00:15:08;;;;;;;35.47;22.00;;;3.00;99.90;;;;;;5095227;28;20069;-66
2020/12/09 00:17:37;;;;;;;32.20;20.38;;;3.00;99.90;;;;;;5113930;28;20063;-64
2020/12/09 00:20:05;;;;;;;32.95;20.60;;;3.00;99.90;;;;;;5114245;28;20465;-66
2020/12/09 00:22:34;;;;;;;34.47;22.58;;;3.00;99.90;;;;;;5114593;28;20120;-64
2020/12/09 00:25:12;;;;;;;32.45;20.17;;;2.90;99.90;;;;;;5114586;28;20044;-68
2020/12/09 00:27:41;;;;;;;32.90;19.75;;;3.00;99.90;;;;;;5110160;28;20071;-64
2020/12/09 00:30:13;;;;;;;34.13;21.10;;;3.00;99.90;;;;;;5095664;28;20126;-64
2020/12/09 00:32:43;;;;;;;33.00;20.80;;;3.00;99.90;;;;;;5113334;28;20066;-64
2020/12/09 00:35:14;;;;;;;31.70;20.00;;;2.90;99.90;;;;;;5121887;27;20104;-65
2020/12/09 00:37:41;;;;;;;34.20;20.85;;;2.90;99.90;;;;;;5113141;28;20058;-65
2020/12/09 00:40:08;;;;;;;33.50;21.30;;;2.90;99.90;;;;;;5112259;28;20048;-64
2020/12/09 00:42:38;;;;;;;34.60;21.10;;;2.90;99.90;;;;;;5113320;28;20088;-64
2020/12/09 00:45:05;;;;;;;34.08;20.30;;;2.90;99.90;;;;;;5098091;28;20066;-64
2020/12/09 00:47:32;;;;;;;34.17;20.63;;;2.90;99.90;;;;;;5112173;28;20378;-65
2020/12/09 00:52:38;;;;;;;34.67;20.13;;;2.90;99.90;;;;;;5111558;28;20142;-65
2020/12/09 00:55:05;;;;;;;32.50;20.73;;;3.00;99.90;;;;;;5111478;28;20050;-64
2020/12/09 00:57:32;;;;;;;36.20;22.30;;;3.00;99.90;;;;;;5112642;28;20047;-64
2020/12/09 01:00:03;;;;;;;32.60;20.40;;;3.00;99.90;;;;;;5113716;28;20614;-64
2020/12/09 01:02:29;;;;;;;33.67;21.35;;;3.10;99.90;;;;;;5112176;28;20059;-63
2020/12/09 01:04:56;;;;;;;32.33;19.98;;;3.10;99.90;;;;;;5112583;28;20346;-64
2020/12/09 01:07:22;;;;;;;32.45;20.35;;;3.10;99.90;;;;;;5111544;28;20054;-64
2020/12/09 01:09:49;;;;;;;34.95;21.38;;;3.10;99.90;;;;;;5112960;28;20055;-64
2020/12/09 01:12:16;;;;;;;33.85;20.50;;;3.10;99.90;;;;;;5112560;28;20085;-63
2020/12/09 01:14:42;;;;;;;31.58;19.52;;;3.10;99.90;;;;;;5113134;28;20127;-67
2020/12/09 01:17:09;;;;;;;35.10;20.95;;;3.00;99.90;;;;;;5111130;28;20035;-63
2020/12/09 01:19:41;;;;;;;33.63;21.00;;;3.10;99.90;;;;;;5112841;28;20040;-64
2020/12/09 01:22:08;;;;;;;31.63;20.23;;;3.00;99.90;;;;;;5090583;28;20714;-65
2020/12/09 01:24:34;;;;;;;34.30;19.50;;;3.00;99.90;;;;;;5094444;28;20059;-64
2020/12/09 01:27:03;;;;;;;34.90;19.92;;;3.00;99.90;;;;;;5111827;28;20497;-64
2020/12/09 01:29:30;;;;;;;31.17;20.27;;;3.00;99.90;;;;;;5111782;28;20046;-65
2020/12/09 01:32:01;;;;;;;31.83;19.33;;;3.00;99.90;;;;;;5112366;28;20052;-65
2020/12/09 01:34:30;;;;;;;31.17;19.98;;;3.10;99.90;;;;;;5110313;28;20039;-64
2020/12/09 01:36:59;;;;;;;33.08;19.55;;;3.10;99.90;;;;;;5094865;28;20737;-65
2020/12/09 01:39:27;;;;;;;32.55;19.13;;;3.10;99.90;;;;;;5112147;28;20519;-63
2020/12/09 01:41:53;;;;;;;33.70;20.23;;;3.10;99.90;;;;;;5112385;28;20054;-64
2020/12/09 01:44:20;;;;;;;34.53;20.63;;;3.10;99.90;;;;;;5104989;28;20505;-64
2020/12/09 01:46:48;;;;;;;33.03;19.92;;;3.10;99.90;;;;;;5112473;28;20056;-63
2020/12/09 01:49:15;;;;;;;36.25;20.60;;;3.10;99.90;;;;;;5110929;28;20419;-63
2020/12/09 01:51:42;;;;;;;35.15;20.67;;;3.10;99.90;;;;;;5108416;28;20397;-64
2020/12/09 01:54:08;;;;;;;33.22;19.90;;;3.20;99.90;;;;;;5111986;28;20048;-64
2020/12/09 01:56:35;;;;;;;31.40;18.33;;;3.20;99.90;;;;;;5110925;28;20052;-65
2020/12/09 01:59:01;;;;;;;32.63;19.17;;;3.30;99.90;;;;;;5111350;28;20051;-64
2020/12/09 02:01:31;;;;;;;30.20;18.52;;;3.30;99.90;;;;;;5109212;28;20044;-65
2020/12/09 02:03:58;;;;;;;33.33;20.55;;;3.30;99.90;;;;;;5109624;28;20048;-64
2020/12/09 02:06:27;;;;;;;33.42;20.58;;;3.30;99.90;;;;;;5104496;28;20051;-65
2020/12/09 02:08:54;;;;;;;26.65;17.60;;;3.30;99.90;;;;;;5108743;28;20044;-66
2020/12/09 02:11:20;;;;;;;32.72;19.95;;;3.30;99.90;;;;;;5110710;28;20054;-64
2020/12/09 02:13:47;;;;;;;41.28;20.95;;;3.30;99.90;;;;;;5111776;28;20043;-64
2020/12/09 02:16:17;;;;;;;35.33;21.10;;;3.30;99.90;;;;;;5109122;28;20078;-65
2020/12/09 02:18:48;;;;;;;30.05;19.20;;;3.30;99.90;;;;;;5110550;28;20451;-64
2020/12/09 02:21:21;;;;;;;32.63;20.33;;;3.30;99.90;;;;;;5110797;28;20051;-64
2020/12/09 02:23:50;;;;;;;34.50;20.30;;;3.20;99.90;;;;;;5108843;28;20050;-65
2020/12/09 02:26:20;;;;;;;33.67;20.40;;;3.20;99.90;;;;;;5091843;28;20105;-63
2020/12/09 02:28:48;;;;;;;32.80;19.58;;;3.20;99.90;;;;;;5111166;28;20062;-63
2020/12/09 02:31:18;;;;;;;34.03;21.42;;;3.20;99.90;;;;;;5109795;28;20047;-64
2020/12/09 02:33:44;;;;;;;33.90;20.40;;;3.20;99.90;;;;;;5111044;28;20051;-63
2020/12/09 02:36:11;;;;;;;30.17;19.42;;;3.20;99.90;;;;;;5110736;28;20054;-63
2020/12/09 02:38:38;;;;;;;31.50;19.60;;;3.20;99.90;;;;;;5109328;27;20047;-65
2020/12/09 02:41:04;;;;;;;31.95;20.23;;;3.20;99.90;;;;;;5109935;28;20043;-64
2020/12/09 02:43:31;;;;;;;33.25;21.48;;;3.20;99.90;;;;;;5110969;28;20050;-63
2020/12/09 02:45:57;;;;;;;34.50;21.95;;;3.20;99.90;;;;;;5110434;28;20048;-63
2020/12/09 02:48:24;;;;;;;31.50;20.85;;;3.10;99.90;;;;;;5110401;28;20051;-64
2020/12/09 02:50:50;;;;;;;35.33;21.40;;;3.10;99.90;;;;;;5110764;28;20047;-64
2020/12/09 02:53:17;;;;;;;32.45;19.77;;;3.10;99.90;;;;;;5109498;28;20043;-64
2020/12/09 02:55:43;;;;;;;30.73;20.00;;;3.10;99.90;;;;;;5110056;28;20565;-66
2020/12/09 02:58:10;;;;;;;37.10;21.88;;;3.10;99.90;;;;;;5111002;28;20052;-63
2020/12/09 03:00:36;;;;;;;37.25;21.38;;;3.10;99.90;;;;;;5109883;28;20043;-65
2020/12/09 03:03:03;;;;;;;37.92;21.90;;;3.10;99.90;;;;;;5110670;28;20532;-64
2020/12/09 03:05:29;;;;;;;36.13;22.38;;;3.10;99.90;;;;;;5110541;28;20358;-66
2020/12/09 03:07:56;;;;;;;34.78;20.48;;;3.10;99.90;;;;;;5110546;28;20051;-64
2020/12/09 03:10:22;;;;;;;32.78;20.33;;;3.10;99.90;;;;;;5091056;28;20059;-65
2020/12/09 03:12:49;;;;;;;34.53;20.85;;;3.10;99.90;;;;;;5109677;28;20059;-64
2020/12/09 03:15:16;;;;;;;35.72;21.45;;;3.00;99.90;;;;;;5108046;28;20052;-65
2020/12/09 03:17:42;;;;;;;33.47;20.20;;;3.10;99.90;;;;;;5110216;28;20055;-65
2020/12/09 03:20:09;;;;;;;36.47;21.70;;;3.10;99.90;;;;;;5110148;28;20048;-64
2020/12/09 03:22:36;;;;;;;34.40;21.83;;;3.10;99.90;;;;;;5091550;28;20066;-65
2020/12/09 03:25:03;;;;;;;35.25;21.85;;;3.00;99.90;;;;;;5108899;28;20079;-64
2020/12/09 03:27:29;;;;;;;34.60;21.70;;;3.00;99.90;;;;;;5109824;28;20051;-66
2020/12/09 03:29:56;;;;;;;34.00;21.38;;;3.00;99.90;;;;;;5108689;28;20058;-65
2020/12/09 03:32:22;;;;;;;35.72;21.65;;;3.10;99.90;;;;;;5108927;28;20063;-65
2020/12/09 03:34:48;;;;;;;33.65;21.25;;;3.00;99.90;;;;;;5109249;28;20039;-65
2020/12/09 03:37:15;;;;;;;31.05;19.25;;;3.00;99.90;;;;;;5110334;28;20059;-64
2020/12/09 03:39:42;;;;;;;34.58;20.10;;;3.00;99.90;;;;;;5109209;28;20051;-65
2020/12/09 03:42:08;;;;;;;34.83;19.75;;;2.90;99.90;;;;;;5108253;28;20413;-64
2020/12/09 03:44:35;;;;;;;34.25;20.50;;;3.00;99.90;;;;;;5108836;28;20070;-65
2020/12/09 03:47:04;;;;;;;32.95;20.73;;;2.90;99.90;;;;;;5107539;28;20044;-64
2020/12/09 03:49:31;;;;;;;34.33;20.80;;;2.90;99.90;;;;;;5109160;28;20485;-65
2020/12/09 03:51:58;;;;;;;34.00;21.33;;;2.90;99.90;;;;;;5108022;28;20079;-65
2020/12/09 03:54:24;;;;;;;40.42;22.23;;;2.80;99.90;;;;;;5110036;28;20047;-64
2020/12/09 03:56:51;;;;;;;35.75;22.33;;;2.80;99.90;;;;;;5109573;28;20047;-65
2020/12/09 03:59:17;;;;;;;39.10;20.95;;;2.80;99.90;;;;;;5110065;28;20040;-66
2020/12/09 04:01:44;;;;;;;38.13;22.45;;;2.80;99.90;;;;;;5089938;28;20474;-67
2020/12/09 04:04:10;;;;;;;35.00;21.20;;;2.90;99.90;;;;;;5109623;28;20055;-67
2020/12/09 04:06:37;;;;;;;37.40;23.33;;;2.90;99.90;;;;;;5108407;28;20048;-65
2020/12/09 04:09:04;;;;;;;43.72;24.05;;;2.90;99.90;;;;;;5109908;28;20052;-64
2020/12/09 04:11:31;;;;;;;39.53;23.92;;;2.80;99.90;;;;;;5108975;28;20486;-64
2020/12/09 04:13:58;;;;;;;38.88;22.70;;;2.80;99.90;;;;;;5110245;28;20047;-64
2020/12/09 04:16:24;;;;;;;42.17;24.15;;;2.80;99.90;;;;;;5108623;28;20051;-65
2020/12/09 04:18:50;;;;;;;44.58;25.10;;;2.70;99.90;;;;;;5109830;28;20036;-65
2020/12/09 04:21:17;;;;;;;42.70;23.48;;;2.70;99.90;;;;;;5109678;28;20047;-67
2020/12/09 04:23:43;;;;;;;47.25;25.45;;;2.70;99.90;;;;;;5109094;28;20508;-65
2020/12/09 04:26:10;;;;;;;47.70;25.48;;;2.60;99.90;;;;;;5111207;28;20043;-65
2020/12/09 04:28:36;;;;;;;46.72;24.88;;;2.60;99.90;;;;;;5112116;28;20099;-65
2020/12/09 04:31:03;;;;;;;45.88;26.25;;;2.60;99.90;;;;;;5113802;28;20059;-64
2020/12/09 04:33:31;;;;;;;41.70;24.75;;;2.60;99.90;;;;;;5111857;28;20123;-65
2020/12/09 04:35:57;;;;;;;43.45;24.77;;;2.50;99.90;;;;;;5113340;28;20043;-63
2020/12/09 04:38:24;;;;;;;46.17;24.52;;;2.50;99.90;;;;;;5112797;28;20052;-65
2020/12/09 04:40:51;;;;;;;43.33;25.02;;;2.50;99.90;;;;;;5112440;28;20759;-64
2020/12/09 04:43:18;;;;;;;42.10;24.50;;;2.50;99.90;;;;;;5113129;28;20040;-66
2020/12/09 04:45:44;;;;;;;43.40;24.52;;;2.60;99.90;;;;;;5113494;28;20062;-64
2020/12/09 04:48:13;;;;;;;44.83;25.23;;;2.60;99.90;;;;;;5112639;28;20512;-66
2020/12/09 04:50:48;;;;;;;39.72;23.48;;;2.60;99.90;;;;;;5113114;28;20051;-66
2020/12/09 04:53:33;;;;;;;40.05;24.08;;;2.60;99.90;;;;;;5112135;28;20043;-63
2020/12/09 04:56:00;;;;;;;48.95;26.80;;;2.60;99.90;;;;;;5112891;28;20046;-64
2020/12/09 04:58:45;;;;;;;45.22;26.13;;;2.60;99.90;;;;;;5113660;28;20498;-63
2020/12/09 05:01:14;;;;;;;50.55;25.75;;;2.50;99.90;;;;;;5102320;28;20048;-65
2020/12/09 05:03:43;;;;;;;46.50;25.60;;;2.60;99.90;;;;;;5113496;28;20482;-64
2020/12/09 05:06:14;;;;;;;46.75;26.30;;;2.50;99.90;;;;;;5112096;28;20058;-64
2020/12/09 05:08:56;;;;;;;41.92;24.38;;;2.50;99.90;;;;;;5113519;28;20391;-64
2020/12/09 05:11:26;;;;;;;;;;;2.50;99.90;;;;;;5093495;28;20044;-63
2020/12/09 05:13:58;;;;;;;41.50;23.35;;;2.50;99.90;;;;;;5113198;28;19946;-66
2020/12/09 05:16:25;;;;;;;41.88;24.30;;;2.60;99.90;;;;;;5093927;28;20066;-64
2020/12/09 05:18:57;;;;;;;41.53;23.98;;;2.60;99.90;;;;;;5112325;28;20047;-64
2020/12/09 05:21:25;;;;;;;43.90;24.52;;;2.60;99.90;;;;;;5112421;28;20048;-64
2020/12/09 05:23:57;;;;;;;43.00;23.45;;;2.70;99.90;;;;;;5112780;28;20505;-65
2020/12/09 05:26:28;;;;;;;41.38;23.25;;;2.70;99.90;;;;;;5112623;28;20077;-65
2020/12/09 05:29:12;;;;;;;40.63;24.02;;;2.70;99.90;;;;;;5108085;28;20078;-66
2020/12/09 05:31:41;;;;;;;45.55;25.80;;;2.80;99.90;;;;;;5099413;28;20065;-64
2020/12/09 05:34:22;;;;;;;40.55;23.08;;;2.80;99.90;;;;;;5109245;28;20478;-63
2020/12/09 05:36:50;;;;;;;37.38;23.08;;;2.80;99.90;;;;;;5111943;28;20048;-64
2020/12/09 05:39:17;;;;;;;40.30;23.98;;;2.90;99.90;;;;;;5111920;28;20040;-63
2020/12/09 05:41:44;;;;;;;42.80;23.75;;;2.90;99.90;;;;;;5111618;28;20058;-64
2020/12/09 05:44:11;;;;;;;41.17;23.92;;;2.90;99.90;;;;;;5112598;28;20097;-63
2020/12/09 05:46:57;;;;;;;44.10;24.77;;;3.00;99.90;;;;;;5111385;28;20043;-64
2020/12/09 05:49:27;;;;;;;39.28;22.05;;;3.00;99.90;;;;;;5111470;28;20104;-64
2020/12/09 05:52:09;;;;;;;36.63;22.10;;;3.00;99.90;;;;;;5110009;28;20051;-63
2020/12/09 05:54:36;;;;;;;40.58;23.90;;;3.00;99.90;;;;;;5093875;28;20047;-63
2020/12/09 05:57:05;;;;;;;43.50;24.85;;;3.00;99.90;;;;;;5109213;28;20040;-63
2020/12/09 05:59:37;;;;;;;39.97;23.98;;;3.00;99.90;;;;;;5109642;28;20059;-63
2020/12/09 06:02:12;;;;;;;40.97;23.88;;;3.10;99.90;;;;;;5093994;28;20054;-66
2020/12/09 06:04:49;;;;;;;44.65;23.83;;;3.10;99.90;;;;;;5113894;27;20233;-65
2020/12/09 06:07:16;;;;;;;43.92;22.45;;;3.10;99.90;;;;;;5109629;28;20058;-65
2020/12/09 06:10:16;;;;;;;38.17;22.27;;;3.10;99.90;;;;;;5111781;28;20421;-65
2020/12/09 06:13:02;;;;;;;40.35;22.00;;;3.10;99.90;;;;;;5105804;28;20059;-65
2020/12/09 06:15:29;;;;;;;38.42;22.83;;;3.10;99.90;;;;;;5110872;28;20048;-64
2020/12/09 06:18:03;;;;;;;41.33;22.55;;;3.10;99.90;;;;;;5111330;27;20040;-64
2020/12/09 06:20:30;;;;;;;40.75;23.40;;;3.10;99.90;;;;;;5111327;28;20051;-64
2020/12/09 06:22:57;;;;;;;42.53;25.10;;;3.00;99.90;;;;;;5109585;28;20047;-67
2020/12/09 06:25:24;;;;;;;41.55;24.23;;;3.10;99.90;;;;;;5111625;28;20051;-64
2020/12/09 06:27:51;;;;;;;44.97;26.52;;;3.10;99.90;;;;;;5111424;28;20130;-63
2020/12/09 06:30:27;;;;;;;40.53;23.60;;;3.10;99.90;;;;;;5109354;28;20052;-65
2020/12/09 06:32:54;;;;;;;42.08;23.10;;;3.10;99.90;;;;;;5110566;28;20120;-65
2020/12/09 06:35:22;;;;;;;39.80;22.42;;;3.00;99.90;;;;;;5109923;28;20074;-66
2020/12/09 06:38:07;;;;;;;37.35;22.42;;;3.00;99.90;;;;;;5111211;28;20049;-65
2020/12/09 06:40:56;;;;;;;45.25;25.67;;;3.00;99.90;;;;;;5110587;28;20761;-68
2020/12/09 06:43:23;;;;;;;41.65;23.38;;;3.00;99.90;;;;;;5111384;28;20040;-65
2020/12/09 06:45:49;;;;;;;41.95;24.13;;;3.00;99.90;;;;;;5110194;28;20051;-65
2020/12/09 06:48:17;;;;;;;50.17;27.55;;;3.00;99.90;;;;;;5111532;28;20039;-65
2020/12/09 06:50:45;;;;;;;46.63;23.75;;;3.00;99.90;;;;;;5107909;28;20047;-66
2020/12/09 06:53:13;;;;;;;46.80;26.58;;;3.00;99.90;;;;;;5105498;28;20051;-68
2020/12/09 06:55:40;;;;;;;44.08;24.20;;;3.10;99.90;;;;;;5112974;27;20054;-66
2020/12/09 06:58:22;;;;;;;42.55;25.17;;;3.10;99.90;;;;;;5108009;28;20489;-66
2020/12/09 07:01:02;;;;;;;42.63;24.00;;;3.10;99.90;;;;;;5107186;28;20489;-65
2020/12/09 07:03:31;;;;;;;44.22;24.15;;;3.10;99.90;;;;;;5109153;28;20046;-65
2020/12/09 07:05:58;;;;;;;45.38;25.23;;;3.10;99.90;;;;;;5109576;28;20054;-64
2020/12/09 07:08:24;;;;;;;44.10;24.48;;;3.00;99.90;;;;;;5110229;28;20083;-64
2020/12/09 07:10:51;;;;;;;43.78;24.95;;;3.00;99.90;;;;;;5109559;28;20047;-65
2020/12/09 07:13:18;;;;;;;46.25;25.13;;;3.00;99.90;;;;;;5110683;28;20046;-65
2020/12/09 07:15:49;;;;;;;43.08;24.52;;;3.00;99.90;;;;;;5110358;28;20500;-66
2020/12/09 07:18:16;;;;;;;45.28;25.63;;;3.00;99.90;;;;;;5082481;28;20036;-66
2020/12/09 07:20:46;;;;;;;46.05;25.77;;;3.00;99.90;;;;;;5110271;28;20569;-66
2020/12/09 07:23:13;;;;;;;49.42;26.08;;;3.00;99.90;;;;;;5109958;28;20055;-65
2020/12/09 07:25:39;;;;;;;43.88;25.92;;;3.00;99.90;;;;;;5108501;28;20050;-64
2020/12/09 07:28:06;;;;;;;50.85;27.30;;;3.00;99.90;;;;;;5110181;28;20077;-64
2020/12/09 07:30:34;;;;;;;49.20;28.23;;;3.00;99.90;;;;;;5109832;28;20047;-64
2020/12/09 07:33:00;;;;;;;52.90;26.70;;;3.00;99.90;;;;;;5109933;28;20501;-62
2020/12/09 07:35:27;;;;;;;49.55;27.95;;;3.00;99.90;;;;;;5108755;28;20533;-63
2020/12/09 07:37:57;;;;;;;47.25;26.85;;;3.00;99.90;;;;;;5110225;28;21692;-66
2020/12/09 07:40:32;;;;;;;57.78;27.85;;;3.00;99.90;;;;;;5110002;28;20052;-66
2020/12/09 07:43:10;;;;;;;45.60;27.00;;;3.10;99.90;;;;;;5106845;28;20489;-65
2020/12/09 07:45:42;;;;;;;49.03;27.65;;;3.10;99.90;;;;;;5102642;28;20375;-66
2020/12/09 07:48:14;;;;;;;49.05;27.88;;;3.10;99.90;;;;;;5108193;28;20044;-65
2020/12/09 07:50:48;;;;;;;48.60;27.33;;;3.10;99.90;;;;;;5107731;28;20047;-66
2020/12/09 07:53:15;;;;;;;48.92;27.38;;;3.10;99.90;;;;;;5100297;28;20140;-66
2020/12/09 07:55:42;;;;;;;46.95;27.23;;;3.10;99.90;;;;;;5105867;28;20604;-69
2020/12/09 07:58:10;;;;;;;52.90;27.40;;;3.00;99.90;;;;;;5108654;28;20039;-65
2020/12/09 08:00:47;;;;;;;49.65;27.55;;;2.90;99.90;;;;;;5108103;28;20504;-66
2020/12/09 08:03:27;;;;;;;53.30;28.85;;;3.00;99.90;;;;;;5110424;28;20051;-64
2020/12/09 08:05:56;;;;;;;45.25;26.80;;;2.90;99.90;;;;;;5109921;28;20535;-67
2020/12/09 08:08:25;;;;;;;53.45;29.05;;;3.00;99.90;;;;;;5113118;28;20051;-66
2020/12/09 08:10:52;;;;;;;51.13;29.23;;;3.00;99.90;;;;;;5112352;28;20130;-66
2020/12/09 08:13:21;;;;;;;51.17;28.75;;;3.00;99.90;;;;;;5110655;28;20054;-67
2020/12/09 08:16:02;;;;;;;52.08;28.50;;;3.00;99.90;;;;;;5110496;28;20042;-65
2020/12/09 08:18:29;;;;;;;44.47;25.80;;;2.90;99.90;;;;;;5110388;28;20629;-69
2020/12/09 08:20:55;;;;;;;46.60;25.77;;;3.00;99.90;;;;;;5112561;28;20059;-65
2020/12/09 08:23:36;;;;;;;52.42;28.60;;;3.00;99.90;;;;;;5113301;28;20044;-62
2020/12/09 08:26:03;;;;;;;47.22;26.90;;;3.00;99.90;;;;;;5110865;28;20044;-65
2020/12/09 08:28:32;;;;;;;53.30;28.23;;;2.90;99.90;;;;;;5112704;28;20087;-63
2020/12/09 08:30:59;;;;;;;46.22;26.67;;;2.90;99.90;;;;;;5112554;28;20051;-65
2020/12/09 08:33:28;;;;;;;49.90;26.92;;;3.00;99.90;;;;;;5112171;28;20047;-64
2020/12/09 08:36:00;;;;;;;47.50;26.05;;;3.00;99.90;;;;;;5111665;28;20040;-64
2020/12/09 08:38:31;;;;;;;44.75;26.45;;;3.10;99.90;;;;;;5111988;28;20047;-64
2020/12/09 08:41:36;;;;;;;47.30;26.48;;;3.10;99.90;;;;;;5106728;28;20052;-64
2020/12/09 08:44:07;;;;;;;45.42;26.73;;;3.00;99.90;;;;;;5113131;28;20597;-63
2020/12/09 08:46:34;;;;;;;47.95;26.95;;;3.00;99.90;;;;;;5101844;28;20493;-64
2020/12/09 08:49:03;;;;;;;47.63;27.67;;;3.00;99.90;;;;;;5113059;28;20051;-65
2020/12/09 08:51:33;;;;;;;50.38;26.70;;;3.00;99.90;;;;;;5114188;27;20039;-63
2020/12/09 08:54:03;;;;;;;43.83;25.95;;;3.00;99.90;;;;;;5112023;28;20737;-63
2020/12/09 08:56:31;;;;;;;47.65;27.08;;;3.00;99.90;;;;;;5111780;28;20047;-65
2020/12/09 08:59:03;;;;;;;49.03;27.83;;;3.00;99.90;;;;;;5112318;28;20101;-67
2020/12/09 09:01:35;;;;;;;53.22;27.17;;;3.00;99.90;;;;;;5105213;28;20044;-65
2020/12/09 09:04:06;;;;;;;48.85;26.35;;;2.90;99.90;;;;;;5112139;28;20040;-66
2020/12/09 09:06:33;;;;;;;45.75;26.55;;;2.90;99.90;;;;;;5111152;28;20101;-64
2020/12/09 09:09:00;;;;;;;49.28;27.80;;;2.90;99.90;;;;;;5111184;28;20051;-63
2020/12/09 09:11:30;;;;;;;53.75;28.90;;;2.90;99.90;;;;;;5110483;28;20568;-65
2020/12/09 09:13:56;;;;;;;43.13;25.23;;;2.90;99.90;;;;;;5111301;28;20040;-63
2020/12/09 09:16:23;;;;;;;46.28;26.70;;;2.90;99.90;;;;;;5111524;28;20047;-64
2020/12/09 09:18:50;;;;;;;42.75;25.92;;;3.00;99.90;;;;;;5112084;28;20151;-66
2020/12/09 09:21:17;;;;;;;46.05;26.50;;;3.00;99.90;;;;;;5111799;28;20036;-69
2020/12/09 09:23:43;;;;;;;47.28;26.50;;;3.00;99.90;;;;;;5093147;28;20074;-65
2020/12/09 09:26:13;;;;;;;47.53;26.40;;;2.90;99.90;;;;;;5111068;28;20073;-65
2020/12/09 09:28:40;;;;;;;50.22;26.67;;;2.90;99.90;;;;;;5110719;28;20055;-64
2020/12/09 09:31:07;;;;;;;50.72;29.15;;;2.90;99.90;;;;;;5110701;28;20047;-63
2020/12/09 09:33:34;;;;;;;49.50;27.83;;;2.80;99.90;;;;;;5108491;28;20576;-63
2020/12/09 09:36:01;;;;;;;46.20;25.77;;;2.90;99.90;;;;;;5108915;28;20071;-64
2020/12/09 09:38:28;;;;;;;45.53;25.98;;;2.90;99.90;;;;;;5110469;28;20146;-63
2020/12/09 09:40:54;;;;;;;46.83;26.58;;;2.90;99.90;;;;;;5110691;28;20055;-65
2020/12/09 09:43:21;;;;;;;47.03;26.00;;;2.90;99.90;;;;;;5111744;28;20039;-65
2020/12/09 09:45:49;;;;;;;47.25;25.98;;;3.00;99.90;;;;;;5110377;28;20152;-64
2020/12/09 09:48:15;;;;;;;48.55;27.52;;;3.00;99.90;;;;;;5111626;28;20075;-66
2020/12/09 09:50:42;;;;;;;44.05;26.13;;;3.00;99.90;;;;;;5109356;28;20193;-64
2020/12/09 09:53:09;;;;;;;45.42;26.02;;;3.10;99.90;;;;;;5110508;28;20063;-64
2020/12/09 09:55:36;;;;;;;45.00;26.33;;;3.20;99.90;;;;;;5111140;28;20040;-64
2020/12/09 09:58:03;;;;;;;43.08;24.92;;;3.30;99.90;;;;;;5110343;28;20044;-65
2020/12/09 10:00:29;;;;;;;43.95;25.23;;;3.30;99.90;;;;;;5107831;28;20126;-64
2020/12/09 10:02:56;;;;;;;44.45;24.75;;;3.40;99.90;;;;;;5107777;28;20158;-65
2020/12/09 10:05:24;;;;;;;42.65;24.77;;;3.40;99.90;;;;;;5110084;28;20406;-65
2020/12/09 10:07:52;;;;;;;44.28;25.20;;;3.30;99.90;;;;;;5109674;28;20459;-64
2020/12/09 10:10:18;;;;;;;41.38;24.33;;;3.30;99.90;;;;;;5109802;28;20158;-64
2020/12/09 10:12:45;;;;;;;45.10;25.48;;;3.30;99.90;;;;;;5109196;28;20132;-65
2020/12/09 10:15:13;;;;;;;42.70;25.13;;;3.30;99.90;;;;;;5102014;28;20743;-66
2020/12/09 10:17:48;;;;;;;41.25;25.02;;;3.30;99.90;;;;;;5109659;28;20134;-65
2020/12/09 10:20:16;;;;;;;40.22;24.05;;;3.30;99.90;;;;;;5110183;28;20035;-67
2020/12/09 10:22:43;;;;;;;44.30;25.02;;;3.30;99.90;;;;;;5108413;28;20040;-65
2020/12/09 10:25:10;;;;;;;43.78;25.17;;;3.20;99.90;;;;;;5108245;28;20113;-67
2020/12/09 10:27:36;;;;;;;47.28;24.92;;;3.10;99.90;;;;;;5108104;28;20047;-64
2020/12/09 10:30:05;;;;;;;48.95;25.85;;;3.10;99.90;;;;;;5108562;28;20062;-69
2020/12/09 10:32:31;;;;;;;43.08;25.63;;;3.10;99.90;;;;;;5108855;28;20040;-65
2020/12/09 10:34:58;;;;;;;49.08;25.85;;;3.10;99.90;;;;;;5107394;28;20043;-65
2020/12/09 10:37:24;;;;;;;46.35;25.85;;;3.10;99.90;;;;;;5109084;28;20391;-65
2020/12/09 10:39:54;;;;;;;45.05;25.33;;;3.10;99.90;;;;;;5106102;28;20141;-64
2020/12/09 10:42:21;;;;;;;49.05;26.75;;;3.20;99.90;;;;;;5109222;28;20043;-65
2020/12/09 10:44:49;;;;;;;47.67;27.73;;;3.20;99.90;;;;;;5107043;28;20261;-66
2020/12/09 10:47:15;;;;;;;45.42;26.15;;;3.20;99.90;;;;;;5108364;28;20397;-64
2020/12/09 10:49:44;;;;;;;48.85;26.60;;;3.30;99.90;;;;;;5110598;28;20052;-64
2020/12/09 10:52:12;;;;;;;47.40;26.55;;;3.30;99.90;;;;;;5109587;28;20356;-64
2020/12/09 10:54:39;;;;;;;47.72;25.92;;;3.30;99.90;;;;;;5110321;28;20059;-66
2020/12/09 10:57:11;;;;;;;44.28;25.50;;;3.30;99.90;;;;;;5091073;28;20061;-65
2020/12/09 10:59:38;;;;;;;43.92;26.02;;;3.30;99.90;;;;;;5109887;28;20487;-65
2020/12/09 11:02:05;;;;;;;47.45;27.13;;;3.30;99.90;;;;;;5108355;28;20046;-65
2020/12/09 11:04:31;;;;;;;46.65;26.60;;;3.30;99.90;;;;;;5108851;28;20490;-64
2020/12/09 11:06:58;;;;;;;47.95;26.92;;;3.30;99.90;;;;;;5108754;27;20078;-65
2020/12/09 11:09:25;;;;;;;44.55;25.70;;;3.20;99.90;;;;;;5107326;28;20058;-66
2020/12/09 11:11:53;;;;;;;46.83;25.58;;;3.20;99.90;;;;;;5109400;28;20047;-65
2020/12/09 11:14:20;;;;;;;47.83;26.08;;;3.30;99.90;;;;;;5109686;28;20047;-65
2020/12/09 11:16:46;;;;;;;49.97;27.25;;;3.30;99.90;;;;;;5109220;28;20672;-67
2020/12/09 11:19:14;;;;;;;53.65;28.08;;;3.20;99.90;;;;;;5108950;28;20066;-66
2020/12/09 11:21:41;;;;;;;52.60;28.00;;;3.10;99.90;;;;;;5109462;28;20047;-65
2020/12/09 11:24:08;;;;;;;46.35;27.60;;;3.10;99.90;;;;;;5090645;28;20136;-66
2020/12/09 11:26:34;;;;;;;50.67;28.27;;;3.10;99.90;;;;;;5108313;28;20043;-66
2020/12/09 11:29:02;;;;;;;50.85;28.67;;;3.10;99.90;;;;;;5091318;28;20043;-65
2020/12/09 11:31:28;;;;;;;55.72;29.77;;;3.10;99.90;;;;;;5108492;28;20152;-68
2020/12/09 11:33:54;;;;;;;52.35;29.40;;;3.00;99.90;;;;;;5110121;28;20490;-65
2020/12/09 11:36:26;;;;;;;52.00;30.05;;;3.00;99.90;;;;;;5107817;28;20398;-66
2020/12/09 11:38:54;;;;;;;46.10;24.80;;;3.00;99.90;;;;;;5090616;28;20417;-68
2020/12/09 11:41:25;;;;;;;58.67;31.85;;;3.00;99.90;;;;;;5107899;28;20042;-66
2020/12/09 11:43:54;;;;;;;61.28;33.35;;;3.00;99.90;;;;;;5110061;28;20056;-68
2020/12/09 11:46:22;;;;;;;56.92;32.83;;;3.00;99.90;;;;;;5108815;28;20682;-64
2020/12/09 11:48:49;;;;;;;50.28;29.38;;;3.00;99.90;;;;;;5110040;28;20066;-65
2020/12/09 11:51:15;;;;;;;55.53;31.08;;;3.10;99.90;;;;;;5108929;28;20055;-66
2020/12/09 11:53:42;;;;;;;57.13;32.22;;;3.10;99.90;;;;;;5108956;28;20446;-66
2020/12/09 11:56:09;;;;;;;59.70;32.17;;;3.10;99.90;;;;;;5108952;28;20048;-65
2020/12/09 11:58:36;;;;;;;59.80;30.52;;;3.10;99.90;;;;;;5109273;28;20058;-66
2020/12/09 12:01:07;;;;;;;52.80;29.80;;;3.10;99.90;;;;;;5108566;28;20052;-65
2020/12/09 12:03:33;;;;;;;54.83;29.77;;;3.10;99.90;;;;;;5109823;28;20133;-66
2020/12/09 12:06:00;;;;;;;51.28;28.05;;;3.10;99.90;;;;;;5109212;28;20067;-64
2020/12/09 12:08:27;;;;;;;49.75;27.35;;;3.10;99.90;;;;;;5091060;28;20142;-67
2020/12/09 12:10:53;;;;;;;53.92;28.55;;;3.00;99.90;;;;;;5108902;28;20502;-65
2020/12/09 12:13:20;;;;;;;53.88;29.27;;;3.00;99.90;;;;;;5109278;28;20114;-68
2020/12/09 12:15:46;;;;;;;51.75;29.05;;;3.00;99.90;;;;;;5108261;28;20081;-64
2020/12/09 12:18:13;;;;;;;53.85;28.90;;;2.90;99.90;;;;;;5108693;28;20051;-65
2020/12/09 12:20:39;;;;;;;54.30;30.27;;;2.90;99.90;;;;;;5109206;28;20039;-65
2020/12/09 12:23:06;;;;;;;53.75;29.63;;;2.90;99.90;;;;;;5108558;28;20528;-63
2020/12/09 12:25:33;;;;;;;49.65;27.98;;;2.90;99.90;;;;;;5108661;28;20742;-65
2020/12/09 12:28:00;;;;;;;52.10;28.67;;;2.80;99.90;;;;;;5097830;28;20444;-63
2020/12/09 12:30:26;;;;;;;54.10;29.48;;;2.90;99.90;;;;;;5090857;28;20059;-64
2020/12/09 12:32:53;;;;;;;52.03;28.30;;;2.90;99.90;;;;;;5107717;28;20051;-65
2020/12/09 12:35:20;;;;;;;51.80;29.80;;;2.90;99.90;;;;;;5108166;28;20509;-65
2020/12/09 12:37:47;;;;;;;52.03;29.73;;;3.00;99.90;;;;;;5108981;28;20425;-65
2020/12/09 12:40:13;;;;;;;54.70;29.85;;;3.00;99.90;;;;;;5108178;28;20052;-64
2020/12/09 12:42:41;;;;;;;54.63;28.25;;;3.00;99.90;;;;;;5108908;28;20063;-64
2020/12/09 12:45:08;;;;;;;53.45;29.23;;;3.00;99.90;;;;;;5094629;28;20040;-63
2020/12/09 12:47:35;;;;;;;51.72;27.92;;;3.10;99.90;;;;;;5110625;28;20048;-63